Pedro Afonso, Brazil
Current Conditions -  °F | °C
As of 3:00 PM on Thursday 27 Nov 2014 (Local Time) from SBPJ Reporting Station
Rain Showers Rain Showers  
Wind Chill: 86°   Ceiling: Unl
Heat Index: 93°   Visibility: 6mi
Dew Point: 73°   Wind: 6mph
Humidity: 66%   Direction: 250°WSW
Pressure: 29.8"   Gusts: NA
Location:  8.98°S, 48.18°W
Report Text: SBPJ 271800Z 25005KT 9999 VCSH FEW020 FEW040TCU 30/23 Q1009
Loading
Personal Weather Stations






























Interactive Weather Map New forecast layout! Learn more

10-Day Weather Forecast

Advertisements
Track Severe Weather on mobile